Time;durP1;ratioP1;P1;durP2;ratioP2;P2;SDS_P1;SDS_P2;PMS_P1;PMS_P2;Temp;Humidity;BMP_temperature;BMP_pressure;BME280_temperature;BME280_humidity;BME280_pressure;Samples;Min_cycle;Max_cycle;Signal;HPM_P1;HPM_P2
2024/04/14 00:02:22;;;;;;;7.93;2.17;;;19.00;78.40;;;;;;4480715;26;20018;-55
2024/04/14 00:05:05;;;;;;;6.07;1.73;;;19.00;78.20;;;;;;4470568;26;20018;-55
2024/04/14 00:07:48;;;;;;;6.05;2.10;;;19.00;78.50;;;;;;4470397;26;20404;-56
2024/04/14 00:10:28;;;;;;;7.55;2.28;;;19.00;78.40;;;;;;4470933;26;20820;-56
2024/04/14 00:13:13;;;;;;;3.97;1.55;;;19.00;78.50;;;;;;4470110;26;20015;-53
2024/04/14 00:15:59;;;;;;;6.47;1.60;;;19.00;78.20;;;;;;4469906;26;20022;-55
2024/04/14 00:18:42;;;;;;;5.30;1.50;;;19.00;77.90;;;;;;4472336;26;20018;-55
2024/04/14 00:21:22;;;;;;;5.97;1.55;;;19.00;77.80;;;;;;4481383;26;20034;-55
2024/04/14 00:24:05;;;;;;;5.63;2.10;;;19.00;78.20;;;;;;4500226;26;20357;-54
2024/04/14 00:26:48;;;;;;;5.38;1.80;;;19.00;79.20;;;;;;4499406;26;20017;-56
2024/04/14 00:29:33;;;;;;;6.18;2.20;;;18.90;77.90;;;;;;4499110;26;20009;-52
2024/04/14 00:32:14;;;;;;;9.13;1.88;;;18.90;77.60;;;;;;4484174;26;20079;-56
2024/04/14 00:34:57;;;;;;;7.22;1.48;;;18.90;78.10;;;;;;4500288;26;20457;-56
2024/04/14 00:37:37;;;;;;;4.82;1.33;;;18.90;78.00;;;;;;4502300;26;20075;-53
2024/04/14 00:40:20;;;;;;;2.67;1.13;;;18.90;78.20;;;;;;4482273;26;20014;-53
2024/04/14 00:43:00;;;;;;;9.40;2.40;;;18.90;78.40;;;;;;4502088;26;20507;-56
2024/04/14 00:45:46;;;;;;;7.97;1.40;;;18.90;78.20;;;;;;4502053;26;20080;-53
2024/04/14 00:48:27;;;;;;;5.13;1.48;;;18.90;78.20;;;;;;4499700;26;20014;-54
2024/04/14 00:51:11;;;;;;;5.95;1.20;;;18.90;78.10;;;;;;4499745;26;20060;-54
2024/04/14 00:53:51;;;;;;;6.10;1.55;;;18.90;77.70;;;;;;4473434;26;20006;-56
2024/04/14 00:56:37;;;;;;;7.50;1.75;;;18.80;77.70;;;;;;4472925;26;20014;-55
2024/04/14 00:59:18;;;;;;;3.65;1.13;;;18.80;76.80;;;;;;4472191;26;20014;-53
2024/04/14 01:02:03;;;;;;;5.65;1.50;;;18.80;77.40;;;;;;4472779;26;20085;-53
2024/04/14 01:04:46;;;;;;;9.13;1.40;;;18.80;77.60;;;;;;4491740;26;20010;-55
2024/04/14 01:07:29;;;;;;;5.20;1.38;;;18.80;77.50;;;;;;4502355;26;20079;-56
2024/04/14 01:10:09;;;;;;;6.05;1.33;;;18.80;77.80;;;;;;4501783;26;20010;-55
2024/04/14 01:12:52;;;;;;;4.28;1.30;;;18.80;78.10;;;;;;4499094;26;20014;-54
2024/04/14 01:15:32;;;;;;;5.95;1.83;;;18.80;78.00;;;;;;4502677;26;20018;-55
2024/04/14 01:18:19;;;;;;;6.80;1.27;;;18.80;78.10;;;;;;4501943;26;20021;-56
2024/04/14 01:20:59;;;;;;;7.32;1.40;;;18.80;77.60;;;;;;4481270;26;20044;-55
2024/04/14 01:23:42;;;;;;;8.85;1.40;;;18.80;78.00;;;;;;4467571;26;20014;-54
2024/04/14 01:26:25;;;;;;;5.47;2.08;;;18.80;78.10;;;;;;4472606;26;20037;-54
2024/04/14 01:29:08;;;;;;;7.63;1.70;;;18.80;77.80;;;;;;4473106;26;20022;-53
2024/04/14 01:31:48;;;;;;;7.55;1.75;;;18.80;78.00;;;;;;4475566;26;20018;-55
2024/04/14 01:34:31;;;;;;;8.75;1.73;;;18.70;77.90;;;;;;4502145;26;20018;-52
2024/04/14 01:37:10;;;;;;;8.05;1.60;;;18.70;78.10;;;;;;4476661;26;20013;-55
2024/04/14 01:39:56;;;;;;;5.05;1.38;;;18.80;78.10;;;;;;4472835;26;20840;-55
2024/04/14 01:42:40;;;;;;;9.35;1.50;;;18.70;78.10;;;;;;4471628;26;20125;-55
2024/04/14 01:45:22;;;;;;;7.40;1.75;;;18.70;77.60;;;;;;4469263;26;20080;-54
2024/04/14 01:48:04;;;;;;;6.50;1.83;;;18.70;78.20;;;;;;4467819;26;20050;-54
2024/04/14 01:50:47;;;;;;;11.23;1.88;;;18.70;78.20;;;;;;4498865;26;20048;-54
2024/04/14 01:53:27;;;;;;;5.20;1.30;;;18.70;78.20;;;;;;4498747;26;20441;-55
2024/04/14 01:56:10;;;;;;;6.70;1.40;;;18.70;78.10;;;;;;4502116;26;20074;-54
2024/04/14 01:58:53;;;;;;;6.88;1.50;;;18.70;77.40;;;;;;4501960;26;20040;-47
2024/04/14 02:01:36;;;;;;;10.10;1.55;;;18.70;77.50;;;;;;4471860;26;20080;-48
2024/04/14 02:04:16;;;;;;;3.63;1.10;;;18.60;78.00;;;;;;4496545;26;20009;-46
2024/04/14 02:06:58;;;;;;;5.72;1.38;;;18.60;78.30;;;;;;4500824;26;20043;-45
2024/04/14 02:09:38;;;;;;;7.28;1.80;;;18.60;78.10;;;;;;4498768;26;20013;-47
2024/04/14 02:12:22;;;;;;;7.68;1.40;;;18.60;77.40;;;;;;4500426;26;20009;-47
2024/04/14 02:15:05;;;;;;;5.60;1.42;;;18.60;77.40;;;;;;4499182;26;20099;-47
2024/04/14 02:17:49;;;;;;;5.80;1.13;;;18.60;77.30;;;;;;4499994;26;20040;-46
2024/04/14 02:20:29;;;;;;;7.70;1.40;;;18.60;76.50;;;;;;4479064;26;20396;-50
2024/04/14 02:23:12;;;;;;;5.68;1.25;;;18.50;77.00;;;;;;4471624;26;20341;-49
2024/04/14 02:25:55;;;;;;;12.32;1.40;;;18.50;76.70;;;;;;4476126;26;20010;-49
2024/04/14 02:28:38;;;;;;;7.65;1.50;;;18.50;76.20;;;;;;4498252;26;20487;-47
2024/04/14 02:31:21;;;;;;;4.15;1.23;;;18.50;76.30;;;;;;4471824;26;20472;-49
2024/04/14 02:34:04;;;;;;;5.05;1.35;;;18.50;76.30;;;;;;4471569;26;20434;-51
2024/04/14 02:36:45;;;;;;;8.55;1.58;;;18.40;75.80;;;;;;4471636;26;20481;-47
2024/04/14 02:39:28;;;;;;;12.32;1.98;;;18.50;75.60;;;;;;4495393;26;20322;-46
2024/04/14 02:42:08;;;;;;;4.30;1.00;;;18.40;76.10;;;;;;4471455;26;20072;-44
2024/04/14 02:44:51;;;;;;;3.08;0.95;;;18.40;76.50;;;;;;4471329;26;20033;-46
2024/04/14 02:47:33;;;;;;;7.10;1.30;;;18.40;76.60;;;;;;4470661;26;20015;-46
2024/04/14 02:50:17;;;;;;;4.18;1.33;;;18.40;76.30;;;;;;4487262;26;20479;-47
2024/04/14 02:52:57;;;;;;;8.00;1.45;;;18.40;76.50;;;;;;4498816;26;20017;-49
2024/04/14 02:55:40;;;;;;;7.00;1.83;;;18.40;76.70;;;;;;4500825;26;20452;-46
2024/04/14 02:58:20;;;;;;;5.40;1.27;;;18.40;76.80;;;;;;4470860;26;20018;-48
2024/04/14 03:01:04;;;;;;;5.38;1.00;;;18.40;76.90;;;;;;4497805;26;20076;-46
2024/04/14 03:03:48;;;;;;;6.80;1.42;;;18.30;76.70;;;;;;4486059;26;20787;-47
2024/04/14 03:06:30;;;;;;;4.70;1.38;;;18.40;76.50;;;;;;4499856;26;20010;-49
2024/04/14 03:09:11;;;;;;;3.85;1.25;;;18.30;76.40;;;;;;4500388;26;20021;-46
2024/04/14 03:11:53;;;;;;;7.72;1.80;;;18.30;76.50;;;;;;4471170;26;20527;-46
2024/04/14 03:14:33;;;;;;;4.45;1.27;;;18.30;76.10;;;;;;4473532;26;20054;-47
2024/04/14 03:17:20;;;;;;;8.18;1.83;;;18.30;76.20;;;;;;4470731;26;20018;-46
2024/04/14 03:20:05;;;;;;;6.70;1.40;;;18.30;76.40;;;;;;4471024;26;20014;-51
2024/04/14 03:22:48;;;;;;;5.95;1.35;;;18.30;76.20;;;;;;4471310;26;20022;-45
2024/04/14 03:25:28;;;;;;;5.63;1.50;;;18.30;76.00;;;;;;4469273;26;20081;-46
2024/04/14 03:28:11;;;;;;;6.50;1.17;;;18.30;76.00;;;;;;4470709;26;20010;-48
2024/04/14 03:30:52;;;;;;;2.00;1.15;;;18.20;76.10;;;;;;4497736;26;20013;-48
2024/04/14 03:33:35;;;;;;;6.23;1.23;;;18.20;76.20;;;;;;4490904;26;20059;-46
2024/04/14 03:36:17;;;;;;;4.20;1.00;;;18.20;76.00;;;;;;4500091;26;20449;-49
2024/04/14 03:39:01;;;;;;;3.90;1.25;;;18.20;75.80;;;;;;4480542;26;20013;-48
2024/04/14 03:41:43;;;;;;;4.75;0.77;;;18.20;75.90;;;;;;4468969;26;20019;-48
2024/04/14 03:44:30;;;;;;;3.97;1.52;;;18.20;75.90;;;;;;4471108;26;20080;-46
2024/04/14 03:47:13;;;;;;;4.22;1.27;;;18.20;75.70;;;;;;4470692;26;20018;-46
2024/04/14 03:49:56;;;;;;;6.60;1.20;;;18.20;75.80;;;;;;4478373;26;20010;-50
2024/04/14 03:52:38;;;;;;;6.97;1.13;;;18.20;75.80;;;;;;4500385;26;20018;-49
2024/04/14 03:55:21;;;;;;;6.75;1.77;;;18.20;75.80;;;;;;4500854;26;20021;-47
2024/04/14 03:58:02;;;;;;;4.38;1.02;;;18.20;75.90;;;;;;4499525;26;20017;-46
2024/04/14 04:00:44;;;;;;;4.72;1.30;;;18.10;75.60;;;;;;4480650;26;20043;-48
2024/04/14 04:03:24;;;;;;;8.07;1.45;;;18.10;75.50;;;;;;4497023;26;20017;-45
2024/04/14 04:06:07;;;;;;;6.57;1.75;;;18.10;76.60;;;;;;4500389;26;20026;-47
2024/04/14 04:08:50;;;;;;;4.40;0.85;;;18.10;75.60;;;;;;4501905;26;20339;-46
2024/04/14 04:11:33;;;;;;;5.75;1.52;;;18.10;75.50;;;;;;4472973;26;20022;-47
2024/04/14 04:14:14;;;;;;;8.85;1.13;;;18.10;75.90;;;;;;4473088;26;20080;-48
2024/04/14 04:16:56;;;;;;;7.78;1.60;;;18.10;75.90;;;;;;4493918;26;20079;-45
2024/04/14 04:19:36;;;;;;;5.82;1.75;;;18.10;75.80;;;;;;4500222;26;20017;-49
2024/04/14 04:22:19;;;;;;;6.10;1.48;;;18.10;75.90;;;;;;4473742;26;20076;-47
2024/04/14 04:25:02;;;;;;;7.70;1.63;;;18.10;75.90;;;;;;4473184;26;20408;-46
2024/04/14 04:27:44;;;;;;;5.53;1.63;;;18.00;76.50;;;;;;4471658;26;20621;-46
2024/04/14 04:30:25;;;;;;;6.60;1.40;;;18.00;75.80;;;;;;4473651;26;20434;-55
2024/04/14 04:33:08;;;;;;;5.30;1.48;;;18.00;75.90;;;;;;4473909;26;20013;-52
2024/04/14 04:35:53;;;;;;;3.88;1.40;;;18.00;75.80;;;;;;4472883;26;20433;-53
2024/04/14 04:38:36;;;;;;;5.43;1.70;;;18.00;75.60;;;;;;4474465;26;20013;-55
2024/04/14 04:41:18;;;;;;;7.78;1.30;;;18.00;75.80;;;;;;4477468;26;20015;-54
2024/04/14 04:44:03;;;;;;;5.03;1.42;;;18.00;75.60;;;;;;4472805;26;20018;-54
2024/04/14 04:46:44;;;;;;;4.55;1.50;;;18.00;75.70;;;;;;4473297;26;20018;-56
2024/04/14 04:49:26;;;;;;;3.97;1.05;;;17.90;75.60;;;;;;4471275;26;20353;-44
2024/04/14 04:52:07;;;;;;;5.00;1.77;;;17.90;75.60;;;;;;4472573;26;20077;-46
2024/04/14 04:54:50;;;;;;;6.22;1.48;;;17.90;75.80;;;;;;4472986;26;20334;-48
2024/04/14 04:57:32;;;;;;;3.97;1.52;;;17.90;75.80;;;;;;4472530;26;20401;-48
2024/04/14 05:00:16;;;;;;;6.68;1.20;;;17.90;75.50;;;;;;4482031;26;20017;-49
2024/04/14 05:02:56;;;;;;;4.70;1.33;;;17.90;75.30;;;;;;4472744;26;20769;-47
2024/04/14 05:05:39;;;;;;;6.35;1.27;;;17.90;75.40;;;;;;4472775;26;20450;-47
2024/04/14 05:08:22;;;;;;;7.90;1.63;;;17.90;75.60;;;;;;4472926;26;20084;-50
2024/04/14 05:11:02;;;;;;;5.25;1.60;;;17.90;75.60;;;;;;4474908;26;20076;-50
2024/04/14 05:13:51;;;;;;;5.60;1.70;;;17.90;75.80;;;;;;4472481;26;20014;-45
2024/04/14 05:16:31;;;;;;;2.45;1.25;;;17.90;75.40;;;;;;4471855;26;20392;-44
2024/04/14 05:19:14;;;;;;;4.68;1.52;;;17.80;75.70;;;;;;4472041;26;20507;-49
2024/04/14 05:21:53;;;;;;;7.15;1.90;;;17.80;75.70;;;;;;4480755;26;20017;-45
2024/04/14 05:24:36;;;;;;;5.10;1.17;;;17.90;76.40;;;;;;4501933;26;20056;-44
2024/04/14 05:27:16;;;;;;;6.90;2.40;;;17.80;76.60;;;;;;4500413;26;20022;-44
2024/04/14 05:30:02;;;;;;;7.75;1.73;;;17.90;76.60;;;;;;4491613;26;20017;-46
2024/04/14 05:32:42;;;;;;;6.85;1.40;;;17.90;76.40;;;;;;4472254;26;20018;-45
2024/04/14 05:35:25;;;;;;;9.02;2.20;;;17.90;76.50;;;;;;4472495;26;20053;-47
2024/04/14 05:38:05;;;;;;;4.50;1.20;;;17.90;76.40;;;;;;4472774;26;20079;-45
2024/04/14 05:40:48;;;;;;;6.20;1.70;;;17.80;76.30;;;;;;4498869;26;20379;-46
2024/04/14 05:43:28;;;;;;;4.63;1.33;;;17.80;76.50;;;;;;4494630;26;20019;-45
2024/04/14 05:46:13;;;;;;;6.18;1.50;;;17.80;76.40;;;;;;4501955;26;20013;-44
2024/04/14 05:48:55;;;;;;;6.55;1.40;;;17.80;76.50;;;;;;4501762;26;20278;-44
2024/04/14 05:51:57;;;;;;;6.73;1.53;;;17.80;76.60;;;;;;4466550;26;20043;-44
2024/04/14 05:54:38;;;;;;;6.57;1.80;;;17.80;76.90;;;;;;4472020;26;20257;-44
2024/04/14 05:57:20;;;;;;;5.10;1.10;;;17.80;76.60;;;;;;4484049;26;20039;-44
2024/04/14 06:00:01;;;;;;;6.18;1.40;;;17.80;76.30;;;;;;4500888;26;20071;-44
2024/04/14 06:02:46;;;;;;;3.97;1.42;;;17.80;76.30;;;;;;4501646;26;20018;-45
2024/04/14 06:05:27;;;;;;;4.80;1.38;;;17.80;76.30;;;;;;4501064;26;20072;-49
2024/04/14 06:08:12;;;;;;;7.60;1.63;;;17.80;76.60;;;;;;4501264;26;20009;-49
2024/04/14 06:10:52;;;;;;;6.78;1.75;;;17.80;76.50;;;;;;4501232;26;20360;-50
2024/04/14 06:13:35;;;;;;;7.43;1.15;;;17.80;76.30;;;;;;4498590;26;20080;-51
2024/04/14 06:16:15;;;;;;;2.22;1.00;;;17.80;76.00;;;;;;4501247;26;20090;-51
2024/04/14 06:19:00;;;;;;;5.32;1.40;;;17.80;75.80;;;;;;4501107;26;20017;-51
2024/04/14 06:21:41;;;;;;;5.28;1.52;;;17.80;75.30;;;;;;4500596;26;20349;-51
2024/04/14 06:24:24;;;;;;;5.70;1.30;;;17.80;75.30;;;;;;4499088;26;20022;-49
2024/04/14 06:27:04;;;;;;;7.65;1.58;;;17.80;75.20;;;;;;4501227;26;20021;-47
2024/04/14 06:29:47;;;;;;;6.00;1.35;;;17.80;75.30;;;;;;4498546;26;20014;-44
2024/04/14 06:32:27;;;;;;;5.85;1.60;;;17.80;75.10;;;;;;4471250;26;20018;-50
2024/04/14 06:35:12;;;;;;;5.63;1.48;;;17.90;74.60;;;;;;4471483;26;20018;-50
2024/04/14 06:37:53;;;;;;;7.88;1.63;;;17.90;74.10;;;;;;4471198;26;20022;-47
2024/04/14 06:40:35;;;;;;;6.78;1.90;;;17.90;75.50;;;;;;4480363;26;20039;-47
2024/04/14 06:43:16;;;;;;;5.80;1.20;;;17.90;75.50;;;;;;4501365;26;20052;-46
2024/04/14 06:45:59;;;;;;;7.28;1.40;;;17.90;76.20;;;;;;4484068;26;20354;-47
2024/04/14 06:48:39;;;;;;;9.18;1.70;;;17.90;76.10;;;;;;4471837;26;20491;-47
2024/04/14 06:51:25;;;;;;;8.38;1.60;;;18.00;75.70;;;;;;4488908;26;20083;-44
2024/04/14 06:54:05;;;;;;;5.13;1.10;;;18.00;75.10;;;;;;4487336;26;20013;-44
2024/04/14 06:56:48;;;;;;;9.10;1.60;;;18.00;75.20;;;;;;4499849;26;20441;-47
2024/04/14 06:59:28;;;;;;;4.28;1.85;;;18.00;74.70;;;;;;4515318;26;20018;-43
2024/04/14 07:02:11;;;;;;;5.40;1.30;;;18.00;74.00;;;;;;4488535;26;20048;-44
2024/04/14 07:04:52;;;;;;;4.70;1.83;;;18.10;73.50;;;;;;4484611;26;20013;-44
2024/04/14 07:07:38;;;;;;;9.50;1.15;;;18.10;72.30;;;;;;4467861;26;20018;-45
2024/04/14 07:10:18;;;;;;;8.45;1.48;;;18.10;72.40;;;;;;4478706;26;20036;-44
2024/04/14 07:13:01;;;;;;;8.60;1.50;;;18.10;72.20;;;;;;4470721;26;20203;-48
2024/04/14 07:15:41;;;;;;;7.28;1.65;;;18.20;71.20;;;;;;4472710;26;20014;-49
2024/04/14 07:18:24;;;;;;;3.95;1.63;;;18.20;70.90;;;;;;4486669;26;20334;-47
2024/04/14 07:21:05;;;;;;;5.20;1.02;;;18.20;70.30;;;;;;4500089;26;20087;-47
2024/04/14 07:23:50;;;;;;;4.67;1.63;;;18.30;70.30;;;;;;4501352;26;20371;-44
2024/04/14 07:26:31;;;;;;;2.90;1.40;;;18.30;69.80;;;;;;4500716;26;20014;-54
2024/04/14 07:29:14;;;;;;;4.63;1.30;;;18.30;68.80;;;;;;4473801;26;20038;-56
2024/04/14 07:31:54;;;;;;;7.38;1.90;;;18.40;67.90;;;;;;4496266;26;20013;-58
2024/04/14 07:34:36;;;;;;;6.78;1.27;;;18.40;67.80;;;;;;4466485;26;20422;-54
2024/04/14 07:37:17;;;;;;;4.82;1.08;;;18.40;65.90;;;;;;4465858;26;20013;-51
2024/04/14 07:40:03;;;;;;;4.60;1.23;;;18.50;65.90;;;;;;4468781;26;20018;-51
2024/04/14 07:42:43;;;;;;;4.22;1.15;;;18.50;65.50;;;;;;4467645;26;20015;-47
2024/04/14 07:45:27;;;;;;;5.63;1.30;;;18.60;64.50;;;;;;4470557;26;20329;-45
2024/04/14 07:48:07;;;;;;;4.38;1.08;;;18.60;63.00;;;;;;4482125;26;20685;-46
2024/04/14 07:50:50;;;;;;;10.13;1.63;;;18.60;62.20;;;;;;4483386;26;20120;-46
2024/04/14 07:53:31;;;;;;;4.68;1.10;;;18.60;61.80;;;;;;4473100;26;20022;-47
2024/04/14 07:56:16;;;;;;;4.13;1.17;;;18.70;60.00;;;;;;4470778;26;20018;-51
2024/04/14 07:58:57;;;;;;;6.00;0.95;;;18.70;60.10;;;;;;4470394;26;20014;-51
2024/04/14 08:01:39;;;;;;;2.97;0.77;;;18.80;61.00;;;;;;4473290;26;20014;-45
2024/04/14 08:04:20;;;;;;;7.13;1.35;;;18.80;61.30;;;;;;4499603;26;20039;-46
2024/04/14 08:07:02;;;;;;;4.57;0.95;;;18.80;61.30;;;;;;4500141;26;20132;-45
2024/04/14 08:09:42;;;;;;;3.72;0.65;;;18.80;60.40;;;;;;4470700;26;20054;-46
2024/04/14 08:12:28;;;;;;;2.70;0.70;;;18.80;60.20;;;;;;4469981;26;20054;-47
2024/04/14 08:15:08;;;;;;;3.47;1.00;;;18.80;59.90;;;;;;4466660;26;20014;-47
2024/04/14 08:17:51;;;;;;;4.35;1.35;;;18.80;59.90;;;;;;4462385;26;20368;-47
2024/04/14 08:20:31;;;;;;;4.28;1.13;;;18.80;59.30;;;;;;4496394;26;20017;-46
2024/04/14 08:23:14;;;;;;;4.90;1.15;;;18.80;58.60;;;;;;4494008;26;20010;-53
2024/04/14 08:25:56;;;;;;;5.57;1.20;;;18.70;58.50;;;;;;4494248;26;20010;-55
2024/04/14 08:28:42;;;;;;;5.28;1.13;;;18.70;58.40;;;;;;4495820;26;20013;-55
2024/04/14 08:31:25;;;;;;;3.75;1.05;;;18.70;58.50;;;;;;4452054;26;20125;-51
2024/04/14 08:34:08;;;;;;;3.45;1.35;;;18.60;58.70;;;;;;4491444;26;20408;-56
2024/04/14 08:36:48;;;;;;;4.43;1.10;;;18.60;58.80;;;;;;4497794;26;20014;-55
2024/04/14 08:39:31;;;;;;;5.70;1.20;;;18.60;58.70;;;;;;4495320;26;20483;-53
2024/04/14 08:42:11;;;;;;;4.63;1.48;;;18.60;58.70;;;;;;4469987;26;20015;-54
2024/04/14 08:44:57;;;;;;;4.68;1.02;;;18.60;58.60;;;;;;4480276;26;20013;-55
2024/04/14 08:47:37;;;;;;;5.32;1.15;;;18.60;58.10;;;;;;4466786;26;20017;-56
2024/04/14 08:50:22;;;;;;;4.30;0.65;;;18.60;58.00;;;;;;4492850;26;20022;-54
2024/04/14 08:53:05;;;;;;;5.15;1.00;;;18.60;57.50;;;;;;4494473;26;20068;-55
2024/04/14 08:55:48;;;;;;;3.45;1.00;;;18.50;57.80;;;;;;4498686;26;20122;-56
2024/04/14 08:58:31;;;;;;;1.98;0.80;;;18.50;57.80;;;;;;4493430;26;20079;-54
2024/04/14 09:01:17;;;;;;;2.67;1.00;;;18.50;57.50;;;;;;4498416;26;20067;-50
2024/04/14 09:03:58;;;;;;;1.45;0.68;;;18.50;58.00;;;;;;4482334;26;20080;-45
2024/04/14 09:06:43;;;;;;;1.00;0.70;;;18.50;57.90;;;;;;4495296;26;20017;-53
2024/04/14 09:09:23;;;;;;;3.28;0.80;;;18.50;57.80;;;;;;4391943;26;20074;-57
2024/04/14 09:12:06;;;;;;;4.25;0.82;;;18.50;58.00;;;;;;4454691;26;20507;-47
2024/04/14 09:14:49;;;;;;;6.55;1.08;;;18.50;58.00;;;;;;4471938;26;20018;-46
2024/04/14 09:17:33;;;;;;;4.68;1.10;;;18.50;57.50;;;;;;4473942;26;20470;-47
2024/04/14 09:20:15;;;;;;;5.28;0.73;;;18.50;57.30;;;;;;4479236;26;20346;-48
2024/04/14 09:22:57;;;;;;;1.88;1.02;;;18.50;57.00;;;;;;4472014;26;20018;-50
2024/04/14 09:25:40;;;;;;;3.67;1.13;;;18.50;56.80;;;;;;4474857;26;20660;-46
2024/04/14 09:28:20;;;;;;;3.70;0.80;;;18.50;57.60;;;;;;4502330;26;20079;-50
2024/04/14 09:31:03;;;;;;;3.63;1.08;;;18.50;56.50;;;;;;4472530;26;20083;-48
2024/04/14 09:33:46;;;;;;;6.53;1.73;;;18.60;56.50;;;;;;4494889;26;20072;-48
2024/04/14 09:36:29;;;;;;;5.35;0.85;;;18.50;55.90;;;;;;4472011;26;20018;-50
2024/04/14 09:39:11;;;;;;;1.75;0.90;;;18.60;55.20;;;;;;4494667;26;20043;-50
2024/04/14 09:41:55;;;;;;;;;;;18.60;55.20;;;;;;4499085;26;20051;-49
2024/04/14 09:44:38;;;;;;;3.78;0.90;;;18.50;55.10;;;;;;4495371;26;19935;-49
2024/04/14 09:47:22;;;;;;;2.03;0.80;;;18.60;54.70;;;;;;4496878;26;20533;-48
2024/04/14 09:50:07;;;;;;;3.45;1.33;;;18.60;54.40;;;;;;4497635;26;20014;-47
2024/04/14 09:52:52;;;;;;;0.90;0.80;;;18.60;53.80;;;;;;4491755;26;20137;-49
2024/04/14 09:55:32;;;;;;;3.30;0.57;;;18.60;53.50;;;;;;4492887;26;20013;-51
2024/04/14 09:58:17;;;;;;;5.63;0.68;;;18.60;52.90;;;;;;4496450;26;20010;-53
2024/04/14 10:01:00;;;;;;;5.28;0.80;;;18.60;53.00;;;;;;4496946;26;20006;-48
2024/04/14 10:03:47;;;;;;;1.42;0.85;;;18.60;53.50;;;;;;4497068;26;20014;-48
2024/04/14 10:06:33;;;;;;;3.22;1.02;;;18.70;52.70;;;;;;4493934;26;20512;-49
2024/04/14 10:09:15;;;;;;;5.10;1.33;;;18.70;52.10;;;;;;4496818;26;20014;-51
2024/04/14 10:11:56;;;;;;;2.72;1.05;;;18.70;51.70;;;;;;4494580;26;20014;-49
2024/04/14 10:14:42;;;;;;;2.30;0.90;;;18.70;51.50;;;;;;4497967;26;20132;-50
2024/04/14 10:17:22;;;;;;;1.45;0.52;;;18.70;50.90;;;;;;4496238;26;20083;-50
2024/04/14 10:20:14;;;;;;;0.82;0.52;;;18.80;50.90;;;;;;4496318;26;20039;-47
2024/04/14 10:23:00;;;;;;;1.05;0.50;;;18.80;50.70;;;;;;4495385;26;20350;-50
2024/04/14 10:25:49;;;;;;;3.55;0.80;;;18.80;50.40;;;;;;4493592;26;20022;-49
2024/04/14 10:28:29;;;;;;;1.55;0.77;;;18.80;50.00;;;;;;4497380;26;20326;-49
2024/04/14 10:31:12;;;;;;;3.70;0.98;;;18.80;49.90;;;;;;4494457;26;20013;-50
2024/04/14 10:34:06;;;;;;;2.72;0.90;;;18.90;49.70;;;;;;4496535;26;20020;-51
2024/04/14 10:36:58;;;;;;;4.85;0.80;;;18.80;49.70;;;;;;4488463;26;20010;-50
2024/04/14 10:39:43;;;;;;;2.90;0.60;;;18.90;49.80;;;;;;4493929;26;20050;-47
2024/04/14 10:42:26;;;;;;;2.80;1.00;;;18.90;49.60;;;;;;4493377;26;20349;-51
2024/04/14 10:45:07;;;;;;;3.58;1.02;;;18.90;49.70;;;;;;4497492;26;20043;-49
2024/04/14 10:47:50;;;;;;;1.35;0.52;;;18.90;49.40;;;;;;4496387;26;20021;-47
2024/04/14 10:50:30;;;;;;;4.57;1.23;;;18.90;49.50;;;;;;4495723;26;20018;-57
2024/04/14 10:53:13;;;;;;;6.47;0.85;;;18.90;49.40;;;;;;4496394;26;20013;-56
2024/04/14 10:55:56;;;;;;;3.55;0.85;;;19.00;49.30;;;;;;4495467;26;20049;-56
2024/04/14 10:58:39;;;;;;;4.28;0.80;;;19.00;49.20;;;;;;4496350;26;20345;-56
2024/04/14 11:01:19;;;;;;;4.95;1.17;;;19.00;49.30;;;;;;4496793;26;20014;-53
2024/04/14 11:04:04;;;;;;;6.75;1.00;;;19.00;49.20;;;;;;4494939;26;20075;-55
2024/04/14 11:06:44;;;;;;;4.80;1.13;;;19.00;49.10;;;;;;4495893;26;20497;-56
2024/04/14 11:09:28;;;;;;;7.30;1.65;;;19.00;49.20;;;;;;4493229;26;20073;-56
2024/04/14 11:12:12;;;;;;;3.33;0.98;;;19.00;49.20;;;;;;4495236;26;20070;-55
2024/04/14 11:14:54;;;;;;;5.20;1.30;;;19.00;49.40;;;;;;4496354;26;20079;-56
2024/04/14 11:17:35;;;;;;;1.23;0.68;;;19.00;49.20;;;;;;4495523;26;20437;-56
2024/04/14 11:20:18;;;;;;;0.50;0.40;;;19.00;49.40;;;;;;4495221;26;20046;-56
2024/04/14 11:23:01;;;;;;;2.33;1.00;;;19.10;49.20;;;;;;4496301;26;20014;-51
2024/04/14 11:25:43;;;;;;;3.15;1.10;;;19.10;49.60;;;;;;4495827;26;20013;-52
2024/04/14 11:28:26;;;;;;;2.42;1.08;;;19.00;49.20;;;;;;4495230;26;20075;-56
2024/04/14 11:31:10;;;;;;;3.70;0.82;;;19.00;49.40;;;;;;4495905;26;20442;-56
2024/04/14 11:33:53;;;;;;;5.88;1.48;;;19.00;50.10;;;;;;4475341;26;20080;-56
2024/04/14 11:36:38;;;;;;;8.02;1.35;;;19.00;49.80;;;;;;4485858;26;20030;-55
2024/04/14 11:39:18;;;;;;;3.83;1.45;;;19.00;49.90;;;;;;4494972;26;20491;-53
2024/04/14 11:42:01;;;;;;;6.25;1.00;;;19.00;49.20;;;;;;4496507;26;20333;-54
2024/04/14 11:44:44;;;;;;;6.60;1.10;;;19.00;49.80;;;;;;4496302;26;20014;-50
2024/04/14 11:47:28;;;;;;;4.88;1.20;;;19.00;50.50;;;;;;4496741;26;20014;-50
2024/04/14 11:50:09;;;;;;;4.43;1.27;;;19.00;50.40;;;;;;4494482;26;20525;-52
2024/04/14 11:52:53;;;;;;;4.82;1.63;;;19.00;50.30;;;;;;4496851;26;20013;-49
2024/04/14 11:55:33;;;;;;;1.48;0.77;;;19.00;50.60;;;;;;4496541;26;20009;-49
2024/04/14 11:58:18;;;;;;;4.93;0.98;;;18.90;50.70;;;;;;4493135;26;20480;-53
2024/04/14 12:01:02;;;;;;;5.45;0.93;;;18.90;51.00;;;;;;4494753;26;20325;-51
2024/04/14 12:03:45;;;;;;;3.53;0.93;;;18.90;50.50;;;;;;4494339;26;20036;-49
2024/04/14 12:06:26;;;;;;;4.55;1.10;;;18.90;50.90;;;;;;4489499;26;20075;-50
2024/04/14 12:09:10;;;;;;;2.28;0.80;;;18.80;51.30;;;;;;4495668;26;20092;-48
2024/04/14 12:11:50;;;;;;;1.75;0.68;;;18.80;51.00;;;;;;4495983;26;20017;-50
2024/04/14 12:14:33;;;;;;;1.27;0.95;;;18.80;50.70;;;;;;4504763;26;20023;-47
2024/04/14 12:17:16;;;;;;;4.85;1.00;;;18.80;50.40;;;;;;4494834;26;20079;-50
2024/04/14 12:19:59;;;;;;;1.10;0.77;;;18.80;49.70;;;;;;4492724;26;20017;-51
2024/04/14 12:22:39;;;;;;;3.00;1.05;;;18.80;50.00;;;;;;4496068;26;20967;-49
2024/04/14 12:25:22;;;;;;;5.20;1.50;;;18.80;50.10;;;;;;4493344;26;20475;-51
2024/04/14 12:28:03;;;;;;;5.50;1.30;;;18.80;50.30;;;;;;4495276;26;20017;-54
2024/04/14 12:30:46;;;;;;;4.65;1.40;;;18.80;50.20;;;;;;4498763;26;20091;-48
2024/04/14 12:33:33;;;;;;;4.15;0.93;;;18.80;50.00;;;;;;4498759;26;20371;-50
2024/04/14 12:36:16;;;;;;;2.65;1.13;;;18.80;51.10;;;;;;4498840;26;20039;-51
2024/04/14 12:38:56;;;;;;;8.80;2.35;;;18.80;50.40;;;;;;4497636;26;20494;-50
2024/04/14 12:41:39;;;;;;;3.08;0.90;;;18.80;51.10;;;;;;4498458;26;20014;-50
2024/04/14 12:44:20;;;;;;;4.00;1.30;;;18.80;51.40;;;;;;4497162;26;20080;-51
2024/04/14 12:47:03;;;;;;;4.10;1.02;;;18.80;51.60;;;;;;4497795;26;20060;-51
2024/04/14 12:49:46;;;;;;;4.22;0.85;;;18.80;51.50;;;;;;4497792;26;20681;-51
2024/04/14 12:52:29;;;;;;;2.08;0.77;;;18.80;51.40;;;;;;4497180;26;20568;-49
2024/04/14 12:55:09;;;;;;;6.03;1.75;;;18.80;51.70;;;;;;4497862;26;20017;-52
2024/04/14 12:57:52;;;;;;;3.38;0.90;;;18.80;52.30;;;;;;4497837;26;20018;-50
2024/04/14 13:00:33;;;;;;;3.22;0.88;;;18.80;51.70;;;;;;4498284;26;20337;-51
2024/04/14 13:03:16;;;;;;;0.47;0.43;;;18.80;51.50;;;;;;4496164;26;20009;-54
2024/04/14 13:05:59;;;;;;;2.88;1.10;;;18.90;51.80;;;;;;4496409;26;20072;-55
2024/04/14 13:08:43;;;;;;;0.40;0.40;;;18.90;52.30;;;;;;4497172;26;20072;-56
2024/04/14 13:11:23;;;;;;;4.45;0.90;;;18.90;51.90;;;;;;4497997;26;20017;-57
2024/04/14 13:14:06;;;;;;;4.15;1.65;;;18.90;51.60;;;;;;4495011;26;20043;-57
2024/04/14 13:16:47;;;;;;;2.00;0.80;;;18.90;50.40;;;;;;4497986;26;20092;-57
2024/04/14 13:19:31;;;;;;;5.18;1.42;;;18.90;51.30;;;;;;4497424;26;20018;-57
2024/04/14 13:22:14;;;;;;;4.18;1.70;;;18.90;51.50;;;;;;4497918;26;20009;-57
2024/04/14 13:24:57;;;;;;;5.85;1.60;;;18.90;51.20;;;;;;4497480;26;20025;-57
2024/04/14 13:27:37;;;;;;;6.50;1.67;;;18.90;51.30;;;;;;4497743;26;20429;-57
2024/04/14 13:30:20;;;;;;;3.38;0.90;;;18.90;52.10;;;;;;4497824;26;20013;-57
2024/04/14 13:33:00;;;;;;;5.13;1.23;;;18.90;52.70;;;;;;4497823;26;20010;-56
2024/04/14 13:35:43;;;;;;;6.65;1.30;;;18.90;52.10;;;;;;4497511;26;20413;-57
2024/04/14 13:38:27;;;;;;;6.88;2.22;;;18.90;52.40;;;;;;4497687;26;20067;-57
2024/04/14 13:41:10;;;;;;;3.60;1.25;;;18.90;53.00;;;;;;4496429;26;20447;-56
2024/04/14 13:43:55;;;;;;;4.45;1.00;;;18.90;52.80;;;;;;4498068;26;20018;-57
2024/04/14 13:46:39;;;;;;;3.08;1.40;;;18.80;52.10;;;;;;4496045;26;20366;-55
2024/04/14 13:49:20;;;;;;;8.15;1.40;;;18.80;52.50;;;;;;4496464;26;20013;-56
2024/04/14 13:52:03;;;;;;;1.67;0.88;;;18.80;52.50;;;;;;4495976;26;20014;-57
2024/04/14 13:54:46;;;;;;;3.33;1.20;;;18.80;52.60;;;;;;4497700;26;20472;-57
2024/04/14 13:57:29;;;;;;;3.67;0.85;;;18.80;53.00;;;;;;4493216;26;20042;-53
2024/04/14 14:00:13;;;;;;;2.80;0.70;;;18.80;52.50;;;;;;4485457;26;20013;-52
2024/04/14 14:02:53;;;;;;;3.10;1.23;;;18.80;52.60;;;;;;4492021;26;20009;-56
2024/04/14 14:05:38;;;;;;;2.75;0.90;;;18.80;52.50;;;;;;4494582;26;20443;-56
2024/04/14 14:08:21;;;;;;;3.55;1.10;;;18.80;51.50;;;;;;4492276;26;20035;-55